Wheat Ridge, CO

4:40 PM MDT on March 31, 2015 (GMT -0600)
Crown Hill Park | | Change Station
CLOSE
Current Station
Personal Weather Station
Location: Wheat Ridge, CO
Elevation: 5480 ft
Nearby Weather Stations

Elev 5480 ft 39.77 °N, 105.10 °W | Updated 13 minutes ago

Partly Cloudy
Partly Cloudy
80.1 °F
Feels Like 78 °F
N
4.0
Wind Variable Wind from NE

Today
High -- | Low -- °F
--% Chance of Precip.
Yesterday
High -- | Low -- °F
Precip. -- in
6:46 AM 7:23 PM
Waxing Gibbous, 89% visible
Pressure 29.90 in
Visibility 60.0 miles
Clouds Few 6500 ft
Scattered Clouds 9500 ft
Heat Index 78 °F
Dew Point 28 °F
Humidity 15%
Rainfall 0.00 in
Snow Depth Not available.
UV 4 out of 12
Pollen 10.90 out of 12
Air Quality Not available.
Flu Activity Not available.
METAR KBJC 312153Z 29011G14KT 60SM FEW065 SCT095 23/M08 A2990

More Conditions Fewer Conditions

Pressure 29.90 in
Visibility 60.0 miles
Clouds Few 6500 ft
Scattered Clouds 9500 ft
Heat Index 78 °F
Dew Point 28 °F
Humidity 15%
Rainfall 0.00 in
Snow Depth Not available.
UV 4 out of 12
Pollen 10.90 out of 12
Air Quality Not available.
Flu Activity Not available.
METAR KBJC 312153Z 29011G14KT 60SM FEW065 SCT095 23/M08 A2990

More Conditions Fewer Conditions

10-Day Weather Forecast

Almanac

Astronomy

Mar. 31, 2015 Rise Set
Actual Time
Civil Twilight
Nautical Twilight
Astronomical Twilight
Moon
Length of Visible Light
Length of Day
Tomorrow will be .
, % of the Moon is Illuminated

Today's Extremes

State Highs State Lows

Community

WunderPhotos

Upload Photos

1,809,864 photos uploaded!

WunderBlogs® & News

Nearby

Air Quality

  Air Quality AQ Index Pollutant
Not available.

Snow Depth

Station Depth Elevation

Earthquake Activity

City Distance Mag. Time & Date
Minimum magnitude displayed is 2.5.

Coastal Water Temperatures

Place Temperature

Stations

Nearby Weather Stations

Station Location Temp. Windchill Dew Point Humidity Wind Precip. Elev Updated Type